Termas de Chillan, Chile
Current Conditions -  °F | °C
As of 6:00 PM on Friday 31 Oct 2014 (Local Time) from SCIE Reporting Station
Clear Clear  
Wind Chill: 61°   Ceiling: Unl
Heat Index: 61°   Visibility: 6mi
Dew Point: 45°   Wind: 18mph
Humidity: 55%   Direction: 220°SW
Pressure: 30.09"   Gusts: NA
Location:  36.9°S, 71.52°W
Report Text: SCIE 312200Z 22016KT CAVOK 16/07 Q1019
Loading
Personal Weather Stations






























Interactive Weather Map
Tropical Storm Tracking
New forecast layout! Learn more

10-Day Weather Forecast

Advertisements
Track Severe Weather on mobile